Time;durP1;ratioP1;P1;durP2;ratioP2;P2;SDS_P1;SDS_P2;PMS_P1;PMS_P2;Temp;Humidity;BMP_temperature;BMP_pressure;BME280_temperature;BME280_humidity;BME280_pressure;Samples;Min_cycle;Max_cycle;Signal;HPM_P1;HPM_P2
2022/06/15 00:00:34;;;;;;;;;;;23.30;50.70;;;;;;5035347;28;19929;-75
2022/06/15 00:03:01;;;;;;;;;;;23.20;50.80;;;;;;5034148;28;19935;-74
2022/06/15 00:05:29;;;;;;;;;;;23.20;50.80;;;;;;5037522;28;19951;-78
2022/06/15 00:07:56;;;;;;;;;;;23.20;51.00;;;;;;5037367;28;20011;-77
2022/06/15 00:10:23;;;;;;;;;;;23.10;51.00;;;;;;5034720;28;19928;-74
2022/06/15 00:12:50;;;;;;;;;;;23.10;51.20;;;;;;5035100;28;20313;-74
2022/06/15 00:15:17;;;;;;;;;;;23.00;51.30;;;;;;5036827;28;19929;-74
2022/06/15 00:17:43;;;;;;;;;;;23.00;51.40;;;;;;5038464;28;20047;-74
2022/06/15 00:20:11;;;;;;;;;;;22.90;51.40;;;;;;5040983;28;19929;-76
2022/06/15 00:22:39;;;;;;;;;;;22.90;51.40;;;;;;5040655;28;20432;-74
2022/06/15 00:25:06;;;;;;;;;;;22.80;51.40;;;;;;5035818;28;20289;-73
2022/06/15 00:27:33;;;;;;;;;;;22.80;51.40;;;;;;5033881;28;19929;-74
2022/06/15 00:29:59;;;;;;;;;;;22.70;51.60;;;;;;5033647;28;19928;-74
2022/06/15 00:32:26;;;;;;;;;;;22.70;51.70;;;;;;5038275;28;19951;-75
2022/06/15 00:34:52;;;;;;;;;;;22.60;51.70;;;;;;5040475;28;19929;-75
2022/06/15 00:37:19;;;;;;;;;;;22.60;51.90;;;;;;5038302;28;19929;-77
2022/06/15 00:39:47;;;;;;;;;;;22.60;51.90;;;;;;5042565;28;19940;-75
2022/06/15 00:42:14;;;;;;;;;;;22.50;52.10;;;;;;5038748;28;20422;-75
2022/06/15 00:44:42;;;;;;;;;;;22.50;52.20;;;;;;5042755;28;19936;-77
2022/06/15 00:47:12;;;;;;;;;;;22.50;52.80;;;;;;5041317;28;19933;-74
2022/06/15 00:49:41;;;;;;;;;;;22.40;52.20;;;;;;5041050;28;19939;-74
2022/06/15 00:52:10;;;;;;;;;;;22.40;52.90;;;;;;5040247;28;20430;-74
2022/06/15 00:54:37;;;;;;;;;;;22.30;52.40;;;;;;5042830;28;20392;-75
2022/06/15 00:57:06;;;;;;;;;;;22.30;52.50;;;;;;5039989;28;19936;-75
2022/06/15 00:59:33;;;;;;;;;;;22.20;52.50;;;;;;5041389;28;19929;-74
2022/06/15 01:02:00;;;;;;;;;;;22.20;52.70;;;;;;5039242;28;19936;-74
2022/06/15 01:04:31;;;;;;;;;;;22.20;52.70;;;;;;5041791;28;19935;-75
2022/06/15 01:06:59;;;;;;;;;;;22.10;52.70;;;;;;5041359;28;19929;-76
2022/06/15 01:09:28;;;;;;;;;;;22.10;52.80;;;;;;5039412;28;19935;-75
2022/06/15 01:11:58;;;;;;;;;;;22.10;53.00;;;;;;5041367;28;20006;-74
2022/06/15 01:14:33;;;;;;;;;;;22.00;53.00;;;;;;5041204;28;19932;-77
2022/06/15 01:17:05;;;;;;;;;;;21.90;53.00;;;;;;5035321;28;19986;-77
2022/06/15 01:19:43;;;;;;;;;;;21.90;53.20;;;;;;5040121;28;19929;-74
2022/06/15 01:22:15;;;;;;;;;;;21.90;53.20;;;;;;5040966;28;19929;-76
2022/06/15 01:25:00;;;;;;;;;;;21.80;53.30;;;;;;5040368;28;19929;-74
2022/06/15 01:27:38;;;;;;;;;;;21.80;53.20;;;;;;5040579;28;19928;-75
2022/06/15 01:30:13;;;;;;;;;;;21.80;53.20;;;;;;5040733;28;19928;-76
2022/06/15 01:32:46;;;;;;;;;;;21.70;53.40;;;;;;5043420;28;19929;-74
2022/06/15 01:35:15;;;;;;;;;;;21.70;53.50;;;;;;5037298;28;19963;-76
2022/06/15 01:37:47;;;;;;;;;;;21.70;53.60;;;;;;5040640;28;19928;-75
2022/06/15 01:40:15;;;;;;;;;;;21.60;53.70;;;;;;5040608;28;19932;-77
2022/06/15 01:42:45;;;;;;;;;;;21.50;53.70;;;;;;5041855;28;20047;-74
2022/06/15 01:45:15;;;;;;;;;;;21.50;53.80;;;;;;5038617;28;19929;-75
2022/06/15 01:47:44;;;;;;;;;;;21.50;53.90;;;;;;5038518;28;19933;-75
2022/06/15 01:50:11;;;;;;;;;;;21.40;53.70;;;;;;5039445;28;19928;-76
2022/06/15 01:52:41;;;;;;;;;;;21.40;53.80;;;;;;5041605;28;19975;-74
2022/06/15 01:55:10;;;;;;;;;;;21.40;54.00;;;;;;5038433;28;19939;-75
2022/06/15 01:57:37;;;;;;;;;;;21.30;53.90;;;;;;5037653;28;19936;-74
2022/06/15 02:00:05;;;;;;;;;;;21.30;54.00;;;;;;5041596;28;19933;-74
2022/06/15 02:02:35;;;;;;;;;;;21.30;54.10;;;;;;5043673;28;20699;-74
2022/06/15 02:05:04;;;;;;;;;;;21.20;54.00;;;;;;5042969;28;19935;-75
2022/06/15 02:07:35;;;;;;;;;;;21.20;54.10;;;;;;5039752;28;19933;-74
2022/06/15 02:10:04;;;;;;;;;;;21.20;54.10;;;;;;5039229;28;19933;-76
2022/06/15 02:12:37;;;;;;;;;;;21.10;54.10;;;;;;5038395;28;19929;-75
2022/06/15 02:15:05;;;;;;;;;;;21.10;54.10;;;;;;5040073;28;19928;-75
2022/06/15 02:17:34;;;;;;;;;;;21.10;54.20;;;;;;5039420;28;19936;-74
2022/06/15 02:20:03;;;;;;;;;;;21.10;54.90;;;;;;5040497;28;20385;-75
2022/06/15 02:22:31;;;;;;;;;;;21.00;54.30;;;;;;5040509;28;19959;-77
2022/06/15 02:24:59;;;;;;;;;;;21.00;54.30;;;;;;5036667;28;20258;-75
2022/06/15 02:27:29;;;;;;;;;;;20.90;54.40;;;;;;5037650;28;20380;-75
2022/06/15 02:29:58;;;;;;;;;;;20.90;54.40;;;;;;5037972;28;19929;-76
2022/06/15 02:32:25;;;;;;;;;;;20.90;54.60;;;;;;5037383;28;19937;-76
2022/06/15 02:34:53;;;;;;;;;;;20.90;54.60;;;;;;5037612;28;19937;-76
2022/06/15 02:37:20;;;;;;;;;;;20.80;54.80;;;;;;5036839;28;20869;-76
2022/06/15 02:39:46;;;;;;;;;;;20.80;54.80;;;;;;5040247;28;19932;-74
2022/06/15 02:42:22;;;;;;;;;;;20.70;55.00;;;;;;5036171;28;19928;-75
2022/06/15 02:44:49;;;;;;;;;;;20.70;55.10;;;;;;5037837;28;19929;-74
2022/06/15 02:47:16;;;;;;;;;;;20.70;55.10;;;;;;5037701;28;19936;-74
2022/06/15 02:49:44;;;;;;;;;;;20.70;55.20;;;;;;5041450;28;19936;-74
2022/06/15 02:52:12;;;;;;;;;;;20.60;55.20;;;;;;5039322;28;19925;-75
2022/06/15 02:54:41;;;;;;;;;;;20.50;55.30;;;;;;5039227;28;19974;-74
2022/06/15 02:57:08;;;;;;;;;;;20.50;55.40;;;;;;5037729;28;19940;-74
2022/06/15 02:59:35;;;;;;;;;;;20.50;55.40;;;;;;5042663;28;20404;-75
2022/06/15 03:02:02;;;;;;;;;;;20.50;55.40;;;;;;5042826;28;19929;-74
2022/06/15 03:04:29;;;;;;;;;;;20.40;55.50;;;;;;5039486;28;19925;-77
2022/06/15 03:06:55;;;;;;;;;;;20.40;55.60;;;;;;5039328;28;19936;-78
2022/06/15 03:09:24;;;;;;;;;;;20.40;55.70;;;;;;5039525;28;19933;-75
2022/06/15 03:11:51;;;;;;;;;;;20.30;55.60;;;;;;5038443;28;20044;-75
2022/06/15 03:14:17;;;;;;;;;;;20.30;55.70;;;;;;5038429;28;19928;-76
2022/06/15 03:16:47;;;;;;;;;;;20.30;55.80;;;;;;5036978;28;20447;-75
2022/06/15 03:19:14;;;;;;;;;;;20.20;55.90;;;;;;5035213;28;19938;-77
2022/06/15 03:21:41;;;;;;;;;;;20.20;56.00;;;;;;5040713;28;20320;-75
2022/06/15 03:24:07;;;;;;;;;;;20.20;55.90;;;;;;5038938;28;19933;-73
2022/06/15 03:26:35;;;;;;;;;;;20.20;56.00;;;;;;5038739;28;19929;-75
2022/06/15 03:29:02;;;;;;;;;;;20.10;56.00;;;;;;5038909;28;19929;-75
2022/06/15 03:31:29;;;;;;;;;;;20.10;56.10;;;;;;5039931;28;19929;-75
2022/06/15 03:33:55;;;;;;;;;;;20.00;56.10;;;;;;5035305;28;19929;-75
2022/06/15 03:36:22;;;;;;;;;;;20.00;56.00;;;;;;5037400;28;19937;-75
2022/06/15 03:38:48;;;;;;;;;;;20.00;56.10;;;;;;5038772;28;20459;-75
2022/06/15 03:41:15;;;;;;;;;;;20.00;56.20;;;;;;5040765;28;19936;-74
2022/06/15 03:43:43;;;;;;;;;;;19.90;56.30;;;;;;5038421;28;19928;-74
2022/06/15 03:46:11;;;;;;;;;;;19.90;56.30;;;;;;5037424;28;20385;-74
2022/06/15 03:48:37;;;;;;;;;;;19.90;56.40;;;;;;5037305;28;20661;-74
2022/06/15 03:51:04;;;;;;;;;;;19.90;56.30;;;;;;5038936;28;19935;-75
2022/06/15 03:53:31;;;;;;;;;;;19.90;56.50;;;;;;5038868;28;19937;-76
2022/06/15 03:55:57;;;;;;;;;;;19.80;56.50;;;;;;5037649;28;19940;-76
2022/06/15 03:58:24;;;;;;;;;;;19.80;56.50;;;;;;5036718;28;19933;-77
2022/06/15 04:00:52;;;;;;;;;;;19.80;56.50;;;;;;5036633;28;19933;-77
2022/06/15 04:03:18;;;;;;;;;;;19.70;56.60;;;;;;5034336;28;19930;-75
2022/06/15 04:05:49;;;;;;;;;;;19.70;56.60;;;;;;5037401;28;19932;-75
2022/06/15 04:11:01;;;;;;;;;;;19.60;56.70;;;;;;5039167;28;20371;-76
2022/06/15 04:13:27;;;;;;;;;;;19.60;56.80;;;;;;5035625;28;19933;-76
2022/06/15 04:15:55;;;;;;;;;;;19.60;56.80;;;;;;5036193;28;19936;-74
2022/06/15 04:18:22;;;;;;;;;;;19.60;56.90;;;;;;5037584;28;19929;-75
2022/06/15 04:20:48;;;;;;;;;;;19.50;57.00;;;;;;5038800;28;20658;-75
2022/06/15 04:23:16;;;;;;;;;;;19.50;56.90;;;;;;5038540;28;19967;-76
2022/06/15 04:25:45;;;;;;;;;;;19.50;57.10;;;;;;5038622;28;19933;-75
2022/06/15 04:28:12;;;;;;;;;;;19.50;57.20;;;;;;5037576;28;20637;-75
2022/06/15 04:30:39;;;;;;;;;;;19.40;57.20;;;;;;5037326;28;19937;-75
2022/06/15 04:33:09;;;;;;;;;;;19.40;57.30;;;;;;5036181;28;20221;-75
2022/06/15 04:35:36;;;;;;;;;;;19.40;57.30;;;;;;5037678;28;19929;-74
2022/06/15 04:38:03;;;;;;;;;;;19.40;57.40;;;;;;5036583;28;20639;-77
2022/06/15 04:40:31;;;;;;;;;;;19.30;57.50;;;;;;5036268;28;19940;-77
2022/06/15 04:42:58;;;;;;;;;;;19.30;57.60;;;;;;5034988;28;20514;-74
2022/06/15 04:45:24;;;;;;;;;;;19.30;57.60;;;;;;5037347;28;19940;-75
2022/06/15 04:47:51;;;;;;;;;;;19.30;57.80;;;;;;5037706;28;20405;-75
2022/06/15 04:50:19;;;;;;;;;;;19.20;57.80;;;;;;5039413;28;19935;-76
2022/06/15 04:52:47;;;;;;;;;;;19.20;57.90;;;;;;5037803;28;19929;-74
2022/06/15 04:55:15;;;;;;;;;;;19.20;58.00;;;;;;5037059;28;20303;-76
2022/06/15 04:57:42;;;;;;;;;;;19.20;58.10;;;;;;5038261;28;19928;-75
2022/06/15 05:00:09;;;;;;;;;;;19.10;58.20;;;;;;5037870;28;19940;-75
2022/06/15 05:02:36;;;;;;;;;;;19.10;58.20;;;;;;5039719;28;19933;-75
2022/06/15 05:05:03;;;;;;;;;;;19.10;58.20;;;;;;5037544;28;20023;-75
2022/06/15 05:07:31;;;;;;;;;;;19.10;58.20;;;;;;5040485;28;19935;-75
2022/06/15 05:09:58;;;;;;;;;;;19.00;58.20;;;;;;5039497;28;19936;-77
2022/06/15 05:12:24;;;;;;;;;;;19.10;58.40;;;;;;5040146;28;19935;-77
2022/06/15 05:14:51;;;;;;;;;;;19.10;58.30;;;;;;5041549;28;20353;-75
2022/06/15 05:17:18;;;;;;;;;;;19.10;58.30;;;;;;5038387;28;20751;-76
2022/06/15 05:19:45;;;;;;;;;;;19.10;58.40;;;;;;5039157;28;19951;-76
2022/06/15 05:22:12;;;;;;;;;;;19.00;60.90;;;;;;5041276;28;20771;-77
2022/06/15 05:24:40;;;;;;;;;;;18.90;60.80;;;;;;5044039;28;19936;-76
2022/06/15 05:27:07;;;;;;;;;;;18.90;60.80;;;;;;5039116;28;19932;-76
2022/06/15 05:29:35;;;;;;;;;;;18.80;60.80;;;;;;5043125;28;19929;-77
2022/06/15 05:32:02;;;;;;;;;;;18.80;60.90;;;;;;5042243;28;19933;-76
2022/06/15 05:34:29;;;;;;;;;;;18.80;60.60;;;;;;5041869;28;19932;-76
2022/06/15 05:36:55;;;;;;;;;;;18.80;60.50;;;;;;5041077;28;20459;-78
2022/06/15 05:39:22;;;;;;;;;;;18.80;60.40;;;;;;5035479;28;20324;-76
2022/06/15 05:41:50;;;;;;;;;;;18.80;60.20;;;;;;5044082;28;19931;-77
2022/06/15 05:44:18;;;;;;;;;;;18.90;60.30;;;;;;5043540;28;19929;-67
2022/06/15 05:46:45;;;;;;;;;;;18.90;60.10;;;;;;5045241;28;20028;-65
2022/06/15 05:49:12;;;;;;;;;;;18.90;60.10;;;;;;5042274;28;19942;-69
2022/06/15 05:51:40;;;;;;;;;;;18.90;60.00;;;;;;5044077;28;19929;-66
2022/06/15 05:54:07;;;;;;;;;;;18.90;60.10;;;;;;5046869;28;19939;-65
2022/06/15 05:56:34;;;;;;;;;;;18.90;60.00;;;;;;5042852;28;19933;-66
2022/06/15 05:59:02;;;;;;;;;;;19.00;59.90;;;;;;5044734;28;20010;-68
2022/06/15 06:01:29;;;;;;;;;;;19.00;59.80;;;;;;5046413;28;20328;-69
2022/06/15 06:03:56;;;;;;;;;;;19.00;59.80;;;;;;5043761;28;19936;-70
2022/06/15 06:06:23;;;;;;;;;;;19.00;59.80;;;;;;5042235;28;19933;-67
2022/06/15 06:08:49;;;;;;;;;;;19.00;59.70;;;;;;5045096;28;20364;-68
2022/06/15 06:11:16;;;;;;;;;;;19.00;59.90;;;;;;5045315;28;19929;-67
2022/06/15 06:13:43;;;;;;;;;;;19.00;59.90;;;;;;5043972;28;20013;-68
2022/06/15 06:16:11;;;;;;;;;;;19.00;59.90;;;;;;5043506;28;20421;-68
2022/06/15 06:18:38;;;;;;;;;;;19.00;59.80;;;;;;5041290;28;20500;-66
2022/06/15 06:21:05;;;;;;;;;;;19.00;59.50;;;;;;5044768;28;20050;-67
2022/06/15 06:23:31;;;;;;;;;;;19.10;59.70;;;;;;5044724;28;19982;-66
2022/06/15 06:25:58;;;;;;;;;;;19.10;59.50;;;;;;5045480;28;20363;-70
2022/06/15 06:28:26;;;;;;;;;;;19.10;59.40;;;;;;5043675;28;19932;-71
2022/06/15 06:30:53;;;;;;;;;;;19.10;59.30;;;;;;5041840;28;19936;-66
2022/06/15 06:33:21;;;;;;;;;;;19.20;59.50;;;;;;5040461;28;19939;-66
2022/06/15 06:35:48;;;;;;;;;;;19.20;59.50;;;;;;5035333;28;19936;-66
2022/06/15 06:38:14;;;;;;;;;;;19.20;59.30;;;;;;5043408;28;19929;-69
2022/06/15 06:40:41;;;;;;;;;;;19.20;59.50;;;;;;5044151;28;19936;-68
2022/06/15 06:43:08;;;;;;;;;;;19.20;59.50;;;;;;5035006;28;19933;-77
2022/06/15 06:45:34;;;;;;;;;;;19.20;59.30;;;;;;5040512;28;20418;-77
2022/06/15 06:48:01;;;;;;;;;;;19.30;59.10;;;;;;5041163;28;19937;-76
2022/06/15 06:50:29;;;;;;;;;;;19.40;59.00;;;;;;5033018;28;20549;-79
2022/06/15 06:52:55;;;;;;;;;;;19.40;59.40;;;;;;5034928;28;19932;-77
2022/06/15 06:55:24;;;;;;;;;;;19.40;59.20;;;;;;5039499;28;20018;-77
2022/06/15 06:57:54;;;;;;;;;;;19.40;59.00;;;;;;5037924;28;19933;-76
2022/06/15 07:00:20;;;;;;;;;;;19.40;58.90;;;;;;5036979;28;19932;-77
2022/06/15 07:02:47;;;;;;;;;;;19.40;59.00;;;;;;5037090;28;19995;-76
2022/06/15 07:05:13;;;;;;;;;;;19.40;59.50;;;;;;5041781;28;19933;-77
2022/06/15 07:07:41;;;;;;;;;;;19.50;59.10;;;;;;5040012;28;19928;-76
2022/06/15 07:10:09;;;;;;;;;;;19.50;59.00;;;;;;5038989;28;19936;-76
2022/06/15 07:12:36;;;;;;;;;;;19.50;59.00;;;;;;5040357;28;20590;-76
2022/06/15 07:15:03;;;;;;;;;;;19.60;58.90;;;;;;5037932;28;19955;-78
2022/06/15 07:17:30;;;;;;;;;;;19.60;58.90;;;;;;5034548;28;19928;-76
2022/06/15 07:19:56;;;;;;;;;;;19.60;59.00;;;;;;5038116;28;19929;-78
2022/06/15 07:22:23;;;;;;;;;;;19.60;59.00;;;;;;5037231;28;19932;-76
2022/06/15 07:24:51;;;;;;;;;;;19.70;58.90;;;;;;5035847;28;19933;-78
2022/06/15 07:27:17;;;;;;;;;;;19.70;58.90;;;;;;5041441;28;20022;-75
2022/06/15 07:29:46;;;;;;;;;;;19.70;59.00;;;;;;5046128;28;20312;-69
2022/06/15 07:32:13;;;;;;;;;;;19.70;59.00;;;;;;5042677;28;20012;-66
2022/06/15 07:34:40;;;;;;;;;;;19.80;59.10;;;;;;5036761;28;19928;-69
2022/06/15 07:37:07;;;;;;;;;;;19.80;59.00;;;;;;5043049;28;19936;-66
2022/06/15 07:39:34;;;;;;;;;;;19.80;58.80;;;;;;5042890;28;20574;-73
2022/06/15 07:42:03;;;;;;;;;;;19.80;58.80;;;;;;5039175;28;19944;-69
2022/06/15 07:44:29;;;;;;;;;;;19.90;58.80;;;;;;5041723;28;20667;-70
2022/06/15 07:49:55;;;;;;;;;;;19.90;58.70;;;;;;5037436;28;19968;-66
2022/06/15 07:52:22;;;;;;;;;;;20.00;58.50;;;;;;5038698;28;19940;-71
2022/06/15 07:54:48;;;;;;;;;;;20.00;58.50;;;;;;5042202;28;20706;-67
2022/06/15 07:57:16;;;;;;;;;;;20.00;58.50;;;;;;5040920;28;19932;-67
2022/06/15 07:59:43;;;;;;;;;;;20.10;58.50;;;;;;5042493;28;20308;-68
2022/06/15 08:02:10;;;;;;;;;;;20.10;58.50;;;;;;5038984;28;19986;-69
2022/06/15 08:04:36;;;;;;;;;;;20.10;58.50;;;;;;5038704;28;19937;-66
2022/06/15 08:07:05;;;;;;;;;;;20.20;58.50;;;;;;5048049;28;20222;-72
2022/06/15 08:09:31;;;;;;;;;;;20.20;58.50;;;;;;5042304;28;19929;-68
2022/06/15 08:12:14;;;;;;;;;;;20.30;58.70;;;;;;5039682;28;19929;-72
2022/06/15 08:14:43;;;;;;;;;;;20.30;58.70;;;;;;5043004;28;19983;-67
2022/06/15 08:17:12;;;;;;;;;;;20.30;58.50;;;;;;5033900;28;19936;-70
2022/06/15 08:19:40;;;;;;;;;;;20.40;58.60;;;;;;5039335;28;19982;-68
2022/06/15 08:22:07;;;;;;;;;;;20.40;58.60;;;;;;5041512;28;19933;-66
2022/06/15 08:24:34;;;;;;;;;;;20.40;58.50;;;;;;5041610;28;19940;-70
2022/06/15 08:27:01;;;;;;;;;;;20.40;58.60;;;;;;5037176;28;19929;-67
2022/06/15 08:29:27;;;;;;;;;;;20.50;58.60;;;;;;5040527;28;19967;-72
2022/06/15 08:31:57;;;;;;;;;;;20.50;58.50;;;;;;5041129;28;19932;-71
2022/06/15 08:34:24;;;;;;;;;;;20.60;58.30;;;;;;5037367;28;20003;-72
2022/06/15 08:36:50;;;;;;;;;;;20.60;58.20;;;;;;5042684;28;19967;-68
2022/06/15 08:39:17;;;;;;;;;;;20.70;58.20;;;;;;5041698;28;20489;-67
2022/06/15 08:41:47;;;;;;;;;;;20.70;58.10;;;;;;5041550;28;19937;-69
2022/06/15 08:44:21;;;;;;;;;;;20.70;58.10;;;;;;5040207;28;19933;-70
2022/06/15 08:46:51;;;;;;;;;;;20.80;58.00;;;;;;5042000;28;19932;-70
2022/06/15 08:49:26;;;;;;;;;;;20.80;57.90;;;;;;5039038;28;20422;-66
2022/06/15 08:51:57;;;;;;;;;;;20.90;58.00;;;;;;5039813;28;19932;-70
2022/06/15 08:54:27;;;;;;;;;;;20.90;57.90;;;;;;5040996;28;20775;-69
2022/06/15 08:56:59;;;;;;;;;;;21.00;58.30;;;;;;5036871;28;20758;-72
2022/06/15 08:59:28;;;;;;;;;;;21.00;57.70;;;;;;5044579;28;19935;-70
2022/06/15 09:01:58;;;;;;;;;;;21.00;57.70;;;;;;5042082;28;19990;-67
2022/06/15 09:04:31;;;;;;;;;;;21.10;57.50;;;;;;5045042;28;19963;-70
2022/06/15 09:07:02;;;;;;;;;;;21.20;57.50;;;;;;5046661;28;20717;-71
2022/06/15 09:09:34;;;;;;;;;;;21.20;56.90;;;;;;5045640;28;19936;-71
2022/06/15 09:15:02;;;;;;;;;;;21.30;56.90;;;;;;5045697;28;19927;-78
2022/06/15 09:17:29;;;;;;;;;;;21.40;56.80;;;;;;5052760;28;19935;-78
2022/06/15 09:20:01;;;;;;;;;;;21.40;56.60;;;;;;5051060;28;20019;-79
2022/06/15 09:22:30;;;;;;;;;;;21.50;56.30;;;;;;5049996;28;20022;-78
2022/06/15 09:24:59;;;;;;;;;;;21.50;55.90;;;;;;5056010;28;19928;-80
2022/06/15 09:27:29;;;;;;;;;;;21.60;55.90;;;;;;5046796;28;19933;-79
2022/06/15 09:29:57;;;;;;;;;;;21.60;55.10;;;;;;5050107;28;20691;-80
2022/06/15 09:32:25;;;;;;;;;;;21.60;55.60;;;;;;5052596;28;20738;-79
2022/06/15 09:34:53;;;;;;;;;;;21.70;55.60;;;;;;5048952;28;20019;-80
2022/06/15 09:37:24;;;;;;;;;;;21.80;55.00;;;;;;5044365;28;19936;-77
2022/06/15 09:39:51;;;;;;;;;;;21.90;55.00;;;;;;5054562;28;19971;-79
2022/06/15 09:42:20;;;;;;;;;;;21.90;55.40;;;;;;5053526;28;20710;-79
2022/06/15 09:44:51;;;;;;;;;;;22.00;55.00;;;;;;5050660;28;19925;-78
2022/06/15 09:47:25;;;;;;;;;;;22.00;54.50;;;;;;5051462;28;19928;-78
2022/06/15 09:49:54;;;;;;;;;;;22.10;54.50;;;;;;5051388;28;19921;-78
2022/06/15 09:52:27;;;;;;;;;;;22.10;54.20;;;;;;5047988;28;19932;-78
2022/06/15 09:54:59;;;;;;;;;;;22.20;54.00;;;;;;5049110;28;20407;-77
2022/06/15 09:57:26;;;;;;;;;;;22.30;54.00;;;;;;5045041;28;19929;-77
2022/06/15 09:59:53;;;;;;;;;;;22.40;53.40;;;;;;5052933;28;19925;-78
2022/06/15 10:02:25;;;;;;;;;;;22.40;53.90;;;;;;5052892;28;19929;-77
2022/06/15 10:04:52;;;;;;;;;;;22.50;53.90;;;;;;5051382;28;20420;-79
2022/06/15 10:07:25;;;;;;;;;;;22.60;53.40;;;;;;5053660;28;19933;-78
2022/06/15 10:10:01;;;;;;;;;;;22.70;53.00;;;;;;5045050;28;19956;-79
2022/06/15 10:12:58;;;;;;;;;;;22.70;52.60;;;;;;5046687;28;19928;-78
2022/06/15 10:15:31;;;;;;;;;;;22.80;52.60;;;;;;5049184;28;19933;-80
2022/06/15 10:18:00;;;;;;;;;;;22.90;52.20;;;;;;5046144;28;20458;-78
2022/06/15 10:20:31;;;;;;;;;;;23.00;52.00;;;;;;5048939;28;19928;-78
2022/06/15 10:22:58;;;;;;;;;;;23.10;52.30;;;;;;5046721;28;19933;-80
2022/06/15 10:25:28;;;;;;;;;;;23.20;51.30;;;;;;5050878;28;19932;-80
2022/06/15 10:28:06;;;;;;;;;;;23.30;51.80;;;;;;5053340;28;19931;-79
2022/06/15 10:30:33;;;;;;;;;;;23.30;51.60;;;;;;5045861;28;19929;-78
2022/06/15 10:33:01;;;;;;;;;;;23.40;51.50;;;;;;5049045;28;19977;-79
2022/06/15 10:35:29;;;;;;;;;;;23.50;51.40;;;;;;5049060;28;19933;-79
2022/06/15 10:37:58;;;;;;;;;;;23.60;51.50;;;;;;5045507;28;19929;-81
2022/06/15 10:40:29;;;;;;;;;;;23.60;50.90;;;;;;5055416;28;19933;-80
2022/06/15 10:43:00;;;;;;;;;;;23.70;51.10;;;;;;5049437;28;19929;-81
2022/06/15 10:45:32;;;;;;;;;;;23.80;51.20;;;;;;5042854;28;19929;-79
2022/06/15 10:48:00;;;;;;;;;;;23.90;51.20;;;;;;5047754;28;19935;-77
2022/06/15 10:50:29;;;;;;;;;;;24.00;50.90;;;;;;5043999;28;19935;-78
2022/06/15 10:52:58;;;;;;;;;;;24.10;50.70;;;;;;5046702;28;20451;-78
2022/06/15 11:04:06;;;;;;;;;;;24.40;50.40;;;;;;5049837;28;19968;-79
2022/06/15 11:06:36;;;;;;;;;;;24.50;50.20;;;;;;5052366;28;20027;-79
2022/06/15 11:09:04;;;;;;;;;;;24.60;49.70;;;;;;5046311;28;19948;-79
2022/06/15 11:11:35;;;;;;;;;;;24.70;50.00;;;;;;5042984;28;19937;-79
2022/06/15 11:14:06;;;;;;;;;;;24.70;50.00;;;;;;5046339;28;21462;-78
2022/06/15 11:19:19;;;;;;;;;;;24.90;49.70;;;;;;5045526;28;20633;-79
2022/06/15 11:21:48;;;;;;;;;;;25.00;49.60;;;;;;5048669;28;19928;-79
2022/06/15 11:24:23;;;;;;;;;;;25.10;49.50;;;;;;5046486;28;19964;-78
2022/06/15 11:26:54;;;;;;;;;;;25.20;49.50;;;;;;5045246;28;19939;-81
2022/06/15 11:29:35;;;;;;;;;;;25.20;49.90;;;;;;5047273;28;19940;-79
2022/06/15 11:32:06;;;;;;;;;;;25.40;49.00;;;;;;5050715;28;19928;-80
2022/06/15 11:34:34;;;;;;;;;;;25.40;49.00;;;;;;5037511;28;19936;-78
2022/06/15 11:37:05;;;;;;;;;;;25.50;49.00;;;;;;5041913;28;19928;-79
2022/06/15 11:39:34;;;;;;;;;;;25.50;48.80;;;;;;5045138;28;19936;-79
2022/06/15 11:42:02;;;;;;;;;;;25.60;48.70;;;;;;5048505;28;19940;-79
2022/06/15 11:44:34;;;;;;;;;;;25.70;48.60;;;;;;5045460;28;19935;-79
2022/06/15 11:47:07;;;;;;;;;;;25.80;48.10;;;;;;5047931;28;19928;-78
2022/06/15 11:49:38;;;;;;;;;;;25.90;48.00;;;;;;5045068;28;19940;-78
2022/06/15 11:52:16;;;;;;;;;;;25.90;48.20;;;;;;5049181;28;19933;-77
2022/06/15 11:54:54;;;;;;;;;;;26.00;47.80;;;;;;5049875;28;20332;-80
2022/06/15 11:57:27;;;;;;;;;;;26.10;48.00;;;;;;5044422;28;19935;-78
2022/06/15 12:00:00;;;;;;;;;;;26.10;47.90;;;;;;5045468;28;19955;-79
2022/06/15 12:02:31;;;;;;;;;;;26.20;47.60;;;;;;5041644;28;19935;-82
2022/06/15 12:05:09;;;;;;;;;;;26.30;47.80;;;;;;5045868;28;20011;-77
2022/06/15 12:07:40;;;;;;;;;;;26.30;47.80;;;;;;5048868;28;19935;-78
2022/06/15 12:10:14;;;;;;;;;;;26.40;47.60;;;;;;5047281;28;19928;-78
2022/06/15 12:12:44;;;;;;;;;;;26.50;46.90;;;;;;5043274;28;19933;-79
2022/06/15 12:15:19;;;;;;;;;;;26.50;47.10;;;;;;5044648;28;19932;-78
2022/06/15 12:17:49;;;;;;;;;;;26.60;47.10;;;;;;5042951;28;19932;-78
2022/06/15 12:20:19;;;;;;;;;;;26.60;46.50;;;;;;5044986;28;19932;-77
2022/06/15 12:22:50;;;;;;;;;;;26.70;46.30;;;;;;5043654;28;19928;-78
2022/06/15 12:25:21;;;;;;;;;;;26.80;46.50;;;;;;5044420;28;19921;-79
2022/06/15 12:27:52;;;;;;;;;;;26.80;45.90;;;;;;5044860;28;20396;-78
2022/06/15 12:30:27;;;;;;;;;;;26.90;45.60;;;;;;5043194;28;19929;-80
2022/06/15 12:32:59;;;;;;;;;;;27.00;45.50;;;;;;5048936;28;19968;-79
2022/06/15 12:35:30;;;;;;;;;;;27.10;45.30;;;;;;5048104;28;20415;-84
2022/06/15 12:38:04;;;;;;;;;;;27.10;44.40;;;;;;5052238;28;19928;-79
2022/06/15 12:40:32;;;;;;;;;;;27.20;44.80;;;;;;5046608;28;19940;-79
2022/06/15 12:43:05;;;;;;;;;;;27.20;44.90;;;;;;5050617;28;19932;-78
2022/06/15 12:45:33;;;;;;;;;;;27.30;44.80;;;;;;5046311;28;19928;-78
2022/06/15 12:48:01;;;;;;;;;;;27.40;44.70;;;;;;5047837;28;19928;-79
2022/06/15 12:50:35;;;;;;;;;;;27.40;44.50;;;;;;5042817;28;19925;-80
2022/06/15 12:53:07;;;;;;;;;;;27.50;44.60;;;;;;5042196;28;19940;-78
2022/06/15 12:55:36;;;;;;;;;;;27.50;44.90;;;;;;5045702;28;19933;-78
2022/06/15 12:58:09;;;;;;;;;;;27.60;44.20;;;;;;5046598;28;20199;-77
2022/06/15 13:00:38;;;;;;;;;;;27.70;43.80;;;;;;5050099;28;19940;-81
2022/06/15 13:03:11;;;;;;;;;;;27.70;43.00;;;;;;5050081;28;19924;-78
2022/06/15 13:05:39;;;;;;;;;;;27.80;43.00;;;;;;5050920;28;19929;-78
2022/06/15 13:08:16;;;;;;;;;;;27.80;43.10;;;;;;5049054;28;20455;-79
2022/06/15 13:10:58;;;;;;;;;;;27.90;43.20;;;;;;5047082;28;20020;-79
2022/06/15 13:13:27;;;;;;;;;;;28.00;42.90;;;;;;5052727;28;19936;-80
2022/06/15 13:15:55;;;;;;;;;;;28.00;43.10;;;;;;5048107;28;20216;-81
2022/06/15 13:18:38;;;;;;;;;;;28.10;42.60;;;;;;5045992;28;20419;-78
2022/06/15 13:21:05;;;;;;;;;;;28.20;43.30;;;;;;5049693;28;20058;-70
2022/06/15 13:23:34;;;;;;;;;;;28.20;43.40;;;;;;5046552;28;19933;-72
2022/06/15 13:26:03;;;;;;;;;;;28.30;43.00;;;;;;5040972;28;19952;-69
2022/06/15 13:28:32;;;;;;;;;;;28.40;43.00;;;;;;5046262;28;20028;-70
2022/06/15 13:31:00;;;;;;;;;;;28.40;42.60;;;;;;5045154;28;19936;-67
2022/06/15 13:33:55;;;;;;;;;;;28.50;41.80;;;;;;5044328;28;20335;-72
2022/06/15 13:36:23;;;;;;;;;;;28.50;41.90;;;;;;5006554;28;20313;-69
2022/06/15 13:38:50;;;;;;;;;;;28.60;41.20;;;;;;5045761;28;19929;-70
2022/06/15 13:41:22;;;;;;;;;;;28.70;41.70;;;;;;5041116;28;19929;-68
2022/06/15 13:44:07;;;;;;;;;;;28.70;40.70;;;;;;5042502;28;19971;-67
2022/06/15 13:46:37;;;;;;;;;;;28.80;41.00;;;;;;5043053;28;19933;-71
2022/06/15 13:49:05;;;;;;;;;;;28.90;41.20;;;;;;5043579;28;19932;-71
2022/06/15 13:51:35;;;;;;;;;;;28.90;40.80;;;;;;5045174;28;19925;-69
2022/06/15 13:54:05;;;;;;;;;;;29.00;40.70;;;;;;5045490;28;19928;-69
2022/06/15 13:56:33;;;;;;;;;;;29.10;41.00;;;;;;5042423;28;19937;-68
2022/06/15 13:59:12;;;;;;;;;;;29.10;40.80;;;;;;5044603;28;19928;-69
2022/06/15 14:01:48;;;;;;;;;;;29.20;40.40;;;;;;5039468;28;19929;-71
2022/06/15 14:04:18;;;;;;;;;;;29.30;39.90;;;;;;5042423;28;19936;-72
2022/06/15 14:06:52;;;;;;;;;;;29.40;39.80;;;;;;5045665;28;19933;-72
2022/06/15 14:09:24;;;;;;;;;;;29.50;40.00;;;;;;5044422;28;19936;-68
2022/06/15 14:12:01;;;;;;;;;;;29.50;38.50;;;;;;5041679;28;19929;-70
2022/06/15 14:14:40;;;;;;;;;;;29.60;38.90;;;;;;5045105;28;20107;-76
2022/06/15 14:17:25;;;;;;;;;;;29.60;38.70;;;;;;5044754;28;19929;-76
2022/06/15 14:19:56;;;;;;;;;;;29.70;38.50;;;;;;5034586;28;20047;-74
2022/06/15 14:22:23;;;;;;;;;;;29.80;38.10;;;;;;5045832;28;19931;-76
2022/06/15 14:25:00;;;;;;;;;;;29.80;37.90;;;;;;5037111;28;19929;-77
2022/06/15 14:27:28;;;;;;;;;;;29.90;36.70;;;;;;5043297;28;19937;-76
2022/06/15 14:29:55;;;;;;;;;;;30.10;35.70;;;;;;5042868;28;19933;-77
2022/06/15 14:32:24;;;;;;;;;;;30.30;38.50;;;;;;5037632;28;19963;-74
2022/06/15 14:34:51;;;;;;;;;;;30.60;40.20;;;;;;5042974;28;19929;-79
2022/06/15 14:37:21;;;;;;;;;;;30.80;40.50;;;;;;5045419;28;19940;-76
2022/06/15 14:39:51;;;;;;;;;;;31.00;39.80;;;;;;5038189;28;19944;-76
2022/06/15 14:42:20;;;;;;;;;;;31.20;40.00;;;;;;5043574;28;20376;-76
2022/06/15 14:44:47;;;;;;;;;;;31.30;39.50;;;;;;5042396;28;19941;-75
2022/06/15 14:47:16;;;;;;;;;;;31.50;39.30;;;;;;5042647;28;19956;-75